Liberty, Iowa
Current Conditions -  °F | °C
As of 10:35 AM on Wednesday 22 Oct 2014 (Local Time) from KI75 Reporting Station
Overcast Overcast  
Wind Chill: 53°   Ceiling: 5000
Heat Index: 53°   Visibility: 7mi
Dew Point: 43°   Wind: 8mph
Humidity: 70%   Direction: 140°SE
Pressure: 30.22"   Gusts: NA
Location:  41.1554°N, 93.6829°W
Report Text: KI75 221535Z AUTO 14007KT 7SM OVC050 12/06 A3022 RMK AO2 T01170063
Loading
Personal Weather Stations






























Interactive Weather Map
Tropical Storm Tracking
New forecast layout! Learn more

10-Day Weather Forecast

Advertisements
Track Severe Weather on mobile